Cosgrave, Nevada
Current Conditions -  °F | °C
As of 1:56 PM on Monday 22 Dec 2014 (Local Time) from KWMC Reporting Station
Broken Clouds Broken Clouds  
Wind Chill: 52°   Ceiling: 4000
Heat Index: 52°   Visibility: 10mi
Dew Point: 41°   Wind: 12mph
Humidity: 66%   Direction: 300°WNW
Pressure: 30.25"   Gusts: NA
Location:  41.1353°N, 118.186°W
Report Text: KWMC 222156Z AUTO 30010KT 10SM SCT030 BKN040 11/05 A3025 RMK AO2 SLP227 T01110050
Loading
Personal Weather Stations






























Interactive Weather Map New forecast layout! Learn more

10-Day Weather Forecast

Advertisements
Track Severe Weather on mobile